createdAt,value
2019-02-12T00:02:10.790Z,1.83
2019-02-12T00:04:37.657Z,1.70
2019-02-12T00:07:04.927Z,1.60
2019-02-12T00:09:31.871Z,1.93
2019-02-12T00:11:58.705Z,1.87
2019-02-12T00:14:25.598Z,1.73
2019-02-12T00:16:52.803Z,1.50
2019-02-12T00:19:19.609Z,1.53
2019-02-12T00:21:46.487Z,2.27
2019-02-12T00:24:13.324Z,1.90
2019-02-12T00:26:40.179Z,2.57
2019-02-12T00:29:07.003Z,2.10
2019-02-12T00:31:33.873Z,1.70
2019-02-12T00:34:00.716Z,1.97
2019-02-12T00:36:27.596Z,2.10
2019-02-12T00:38:55.061Z,1.67
2019-02-12T00:41:21.956Z,2.07
2019-02-12T00:43:49.252Z,1.97
2019-02-12T00:46:16.599Z,2.40
2019-02-12T00:48:43.570Z,1.93
2019-02-12T00:51:17.590Z,2.07
2019-02-12T00:53:39.309Z,2.43
2019-02-12T00:56:06.199Z,2.00
2019-02-12T00:58:33.071Z,2.13
2019-02-12T01:01:00.101Z,1.87
2019-02-12T01:03:27.414Z,2.47
2019-02-12T01:05:54.460Z,1.77
2019-02-12T01:08:21.728Z,2.50
2019-02-12T01:10:50.637Z,3.17
2019-02-12T01:13:17.494Z,2.13
2019-02-12T01:15:53.467Z,1.93
2019-02-12T01:18:21.073Z,2.30
2019-02-12T01:20:48.016Z,2.50
2019-02-12T01:23:15.051Z,2.53
2019-02-12T01:25:42.532Z,2.37
2019-02-12T01:28:09.873Z,2.67
2019-02-12T01:30:36.764Z,2.30
2019-02-12T01:33:03.744Z,2.40
2019-02-12T01:35:30.710Z,10.17
2019-02-12T01:37:57.742Z,4.80
2019-02-12T01:40:24.672Z,3.30
2019-02-12T01:42:51.571Z,2.20
2019-02-12T01:45:18.367Z,2.83
2019-02-12T01:47:45.316Z,2.27
2019-02-12T01:50:12.505Z,1.90
2019-02-12T01:52:40.403Z,2.07
2019-02-12T01:55:08.541Z,1.47
2019-02-12T01:57:35.888Z,2.47
2019-02-12T02:00:03.417Z,1.83
2019-02-12T02:02:30.428Z,2.33
2019-02-12T02:04:57.211Z,1.93
2019-02-12T02:07:24.381Z,2.57
2019-02-12T02:09:51.561Z,2.27
2019-02-12T02:12:18.352Z,2.00
2019-02-12T02:14:45.254Z,2.23
2019-02-12T02:17:12.318Z,2.03
2019-02-12T02:19:39.384Z,2.23
2019-02-12T02:22:06.613Z,1.20
2019-02-12T02:24:34.041Z,1.23
2019-02-12T02:27:00.891Z,1.87
2019-02-12T02:29:27.692Z,1.73
2019-02-12T02:31:54.640Z,1.67
2019-02-12T02:34:21.510Z,1.30
2019-02-12T02:36:48.483Z,1.57
2019-02-12T02:39:15.413Z,1.80
2019-02-12T02:41:42.263Z,1.23
2019-02-12T02:44:09.093Z,1.63
2019-02-12T02:46:35.994Z,1.77
2019-02-12T02:49:02.947Z,1.60
2019-02-12T02:51:30.120Z,1.40
2019-02-12T02:53:56.997Z,1.40
2019-02-12T02:56:24.804Z,2.10
2019-02-12T02:58:51.651Z,1.90
2019-02-12T03:01:18.952Z,1.67
2019-02-12T03:03:45.741Z,2.20
2019-02-12T03:06:12.885Z,1.37
2019-02-12T03:08:39.841Z,1.60
2019-02-12T03:11:06.728Z,1.87
2019-02-12T03:13:33.524Z,1.80
2019-02-12T03:16:00.401Z,1.40
2019-02-12T03:18:27.268Z,1.67
2019-02-12T03:20:54.091Z,1.50
2019-02-12T03:23:21.020Z,1.60
2019-02-12T03:25:48.140Z,1.60
2019-02-12T03:28:15.050Z,1.33
2019-02-12T03:30:42.301Z,1.00
2019-02-12T03:33:09.226Z,1.40
2019-02-12T03:35:36.043Z,1.50
2019-02-12T03:38:02.927Z,1.33
2019-02-12T03:40:29.992Z,1.43
2019-02-12T03:42:56.826Z,1.80
2019-02-12T03:45:23.641Z,1.30
2019-02-12T03:47:50.585Z,1.80
2019-02-12T03:50:17.742Z,1.30
2019-02-12T03:52:44.852Z,1.90
2019-02-12T03:55:11.893Z,1.57
2019-02-12T03:57:38.890Z,1.60
2019-02-12T04:00:06.945Z,1.97
2019-02-12T04:02:33.834Z,1.27
2019-02-12T04:05:00.835Z,1.77
2019-02-12T04:07:28.078Z,2.73
2019-02-12T04:09:55.199Z,1.57
2019-02-12T04:12:22.423Z,1.30
2019-02-12T04:14:49.472Z,1.40
2019-02-12T04:17:16.354Z,1.30
2019-02-12T04:19:43.185Z,1.33
2019-02-12T04:22:10.334Z,1.20
2019-02-12T04:24:37.666Z,1.40
2019-02-12T04:27:04.571Z,1.60
2019-02-12T04:29:31.827Z,1.40
2019-02-12T04:31:58.641Z,0.93
2019-02-12T04:34:25.818Z,1.77
2019-02-12T04:36:52.719Z,1.00
2019-02-12T04:39:19.515Z,1.20
2019-02-12T04:41:46.379Z,1.13
2019-02-12T04:44:13.794Z,1.17
2019-02-12T04:46:40.681Z,2.40
2019-02-12T04:49:07.592Z,1.07
2019-02-12T04:51:34.577Z,1.20
2019-02-12T04:54:01.377Z,1.07
2019-02-12T04:56:28.274Z,1.00
2019-02-12T04:58:55.206Z,1.20
2019-02-12T05:01:22.009Z,1.17
2019-02-12T05:03:48.990Z,1.33
2019-02-12T05:06:16.207Z,1.53
2019-02-12T05:09:01.472Z,1.57
2019-02-12T05:11:28.533Z,1.20
2019-02-12T05:13:55.345Z,1.00
2019-02-12T05:16:22.250Z,0.97
2019-02-12T05:18:49.056Z,1.70
2019-02-12T05:21:16.050Z,1.10
2019-02-12T05:23:42.871Z,1.43
2019-02-12T05:26:09.672Z,1.00
2019-02-12T05:28:36.496Z,1.17
2019-02-12T05:31:03.265Z,1.70
2019-02-12T05:33:30.352Z,1.80
2019-02-12T05:35:57.156Z,1.37
2019-02-12T05:38:24.076Z,1.40
2019-02-12T05:40:51.287Z,1.40
2019-02-12T05:43:18.360Z,1.43
2019-02-12T05:45:45.278Z,2.20
2019-02-12T05:48:13.205Z,1.40
2019-02-12T05:50:40.077Z,2.57
2019-02-12T05:53:06.949Z,1.53
2019-02-12T05:55:33.813Z,5.30
2019-02-12T05:58:00.603Z,1.60
2019-02-12T06:00:29.552Z,2.00
2019-02-12T06:02:56.520Z,1.43
2019-02-12T06:05:24.361Z,2.03
2019-02-12T06:07:51.276Z,3.23
2019-02-12T06:10:18.249Z,2.30
2019-02-12T06:12:45.110Z,1.93
2019-02-12T06:15:11.969Z,1.43
2019-02-12T06:17:38.813Z,1.60
2019-02-12T06:20:05.627Z,1.83
2019-02-12T06:22:32.630Z,1.70
2019-02-12T06:24:59.619Z,1.87
2019-02-12T06:27:26.407Z,1.90
2019-02-12T06:29:53.289Z,1.80
2019-02-12T06:32:20.067Z,1.63
2019-02-12T06:34:46.877Z,1.40
2019-02-12T06:37:13.658Z,1.83
2019-02-12T06:39:40.447Z,1.50
2019-02-12T06:42:07.279Z,2.10
2019-02-12T06:44:34.064Z,1.80
2019-02-12T06:47:01.159Z,1.60
2019-02-12T06:49:28.064Z,2.07
2019-02-12T06:51:54.860Z,4.77
2019-02-12T06:54:21.720Z,1.97
2019-02-12T06:56:48.616Z,2.03
2019-02-12T06:59:15.897Z,2.80
2019-02-12T07:01:42.749Z,2.00
2019-02-12T07:04:11.325Z,2.33
2019-02-12T07:06:56.409Z,2.97
2019-02-12T07:09:31.656Z,2.30
2019-02-12T07:12:08.187Z,1.83
2019-02-12T07:14:37.778Z,2.27
2019-02-12T07:17:12.107Z,2.40
2019-02-12T07:19:49.205Z,2.13
2019-02-12T07:22:30.355Z,6.17
2019-02-12T07:25:16.949Z,2.50
2019-02-12T07:27:53.979Z,1.90
2019-02-12T07:30:28.175Z,2.30
2019-02-12T07:33:13.389Z,2.10
2019-02-12T07:35:55.591Z,3.00
2019-02-12T07:38:29.448Z,1.83
2019-02-12T07:41:20.079Z,2.13
2019-02-12T07:44:02.956Z,2.13
2019-02-12T07:46:46.731Z,3.80
2019-02-12T07:49:33.513Z,2.93
2019-02-12T07:52:20.079Z,1.90
2019-02-12T07:54:56.059Z,3.10
2019-02-12T07:57:42.631Z,2.33
2019-02-12T08:00:29.215Z,2.20
2019-02-12T08:03:21.836Z,2.33
2019-02-12T08:05:54.300Z,2.10
2019-02-12T08:08:47.052Z,2.10
2019-02-12T08:11:25.780Z,2.00
2019-02-12T08:14:13.295Z,1.87
2019-02-12T08:16:46.808Z,2.60
2019-02-12T08:19:17.164Z,2.03
2019-02-12T08:22:05.930Z,1.40
2019-02-12T08:24:49.839Z,2.20
2019-02-12T08:27:39.338Z,2.30
2019-02-12T08:30:16.216Z,3.13
2019-02-12T08:32:53.713Z,1.70
2019-02-12T08:35:40.377Z,1.70
2019-02-12T08:38:21.359Z,1.83
2019-02-12T08:41:08.478Z,1.40
2019-02-12T08:43:55.032Z,2.00
2019-02-12T08:46:34.556Z,1.43
2019-02-12T08:49:21.247Z,2.03
2019-02-12T08:52:00.296Z,2.30
2019-02-12T08:54:56.016Z,2.83
2019-02-12T08:57:45.523Z,2.00
2019-02-12T09:00:38.221Z,1.90
2019-02-12T09:03:13.876Z,1.53
2019-02-12T09:05:45.809Z,1.83
2019-02-12T09:08:35.481Z,1.53
2019-02-12T09:11:06.764Z,2.17
2019-02-12T09:13:35.672Z,2.10
2019-02-12T09:16:18.489Z,1.60
2019-02-12T09:18:51.716Z,1.93
2019-02-12T09:21:37.218Z,1.80
2019-02-12T09:24:17.045Z,2.00
2019-02-12T09:26:49.587Z,1.60
2019-02-12T09:29:32.271Z,2.63
2019-02-12T09:32:17.416Z,1.60
2019-02-12T09:35:02.944Z,1.60
2019-02-12T09:37:49.660Z,1.80
2019-02-12T09:40:37.693Z,1.87
2019-02-12T09:43:09.623Z,2.63
2019-02-12T09:45:54.769Z,2.83
2019-02-12T09:48:30.529Z,2.20
2019-02-12T09:51:00.882Z,2.07
2019-02-12T09:53:46.601Z,2.33
2019-02-12T09:56:23.541Z,2.03
2019-02-12T09:59:08.927Z,2.33
2019-02-12T10:01:39.334Z,2.53
2019-02-12T10:04:19.600Z,2.53
2019-02-12T10:07:15.211Z,2.00
2019-02-12T10:10:01.493Z,1.70
2019-02-12T10:12:39.548Z,1.83
2019-02-12T10:15:13.839Z,2.13
2019-02-12T10:17:47.560Z,1.53
2019-02-12T10:20:35.928Z,1.80
2019-02-12T10:23:10.849Z,2.00
2019-02-12T10:25:39.953Z,1.60
2019-02-12T10:28:26.466Z,1.27
2019-02-12T10:31:13.019Z,1.90
2019-02-12T10:33:39.815Z,1.50
2019-02-12T10:36:06.591Z,2.40
2019-02-12T10:38:33.401Z,1.70
2019-02-12T10:41:00.188Z,1.73
2019-02-12T10:43:27.240Z,2.00
2019-02-12T10:45:54.139Z,1.83
2019-02-12T10:48:21.004Z,1.73
2019-02-12T10:50:47.800Z,1.90
2019-02-12T10:53:14.972Z,2.50
2019-02-12T10:55:41.747Z,1.77
2019-02-12T10:58:08.672Z,1.63
2019-02-12T11:00:35.824Z,1.83
2019-02-12T11:03:02.694Z,1.47
2019-02-12T11:05:29.752Z,2.17
2019-02-12T11:07:56.675Z,1.93
2019-02-12T11:10:23.660Z,1.63
2019-02-12T11:12:50.823Z,1.20
2019-02-12T11:15:17.712Z,1.67
2019-02-12T11:17:44.555Z,1.70
2019-02-12T11:20:11.550Z,1.93
2019-02-12T11:22:38.489Z,2.20
2019-02-12T11:25:05.492Z,1.67
2019-02-12T11:27:32.287Z,2.37
2019-02-12T11:29:59.182Z,1.90
2019-02-12T11:32:25.992Z,2.23
2019-02-12T11:34:53.367Z,1.60
2019-02-12T11:37:20.395Z,1.47
2019-02-12T11:39:47.775Z,1.80
2019-02-12T11:42:14.688Z,2.10
2019-02-12T11:44:41.604Z,1.53
2019-02-12T11:47:08.534Z,1.33
2019-02-12T11:49:35.456Z,1.70
2019-02-12T11:52:02.656Z,1.50
2019-02-12T11:54:29.527Z,1.93
2019-02-12T11:56:56.562Z,1.80
2019-02-12T11:59:23.778Z,1.40
2019-02-12T12:01:50.662Z,1.57
2019-02-12T12:04:17.721Z,2.40
2019-02-12T12:06:44.636Z,2.93
2019-02-12T12:09:11.523Z,2.60
2019-02-12T12:11:38.346Z,2.67
2019-02-12T12:14:05.192Z,3.00
2019-02-12T12:16:31.984Z,2.03
2019-02-12T12:18:58.775Z,1.60
2019-02-12T12:21:25.575Z,2.63
2019-02-12T12:23:52.456Z,2.43
2019-02-12T12:26:19.255Z,1.97
2019-02-12T12:28:46.040Z,2.17
2019-02-12T12:31:12.831Z,3.90
2019-02-12T12:33:39.635Z,2.50
2019-02-12T12:36:06.516Z,2.20
2019-02-12T12:38:33.316Z,2.10
2019-02-12T12:41:00.367Z,2.47
2019-02-12T12:43:27.451Z,2.40
2019-02-12T12:45:54.311Z,1.70
2019-02-12T12:48:21.188Z,1.43
2019-02-12T12:50:48.036Z,1.87
2019-02-12T12:53:14.884Z,1.67
2019-02-12T12:55:41.743Z,1.67
2019-02-12T12:58:08.591Z,1.50
2019-02-12T13:00:35.449Z,2.10
2019-02-12T13:03:02.263Z,2.30
2019-02-12T13:05:29.164Z,1.43
2019-02-12T13:07:56.065Z,1.63
2019-02-12T13:10:22.889Z,1.93
2019-02-12T13:12:49.793Z,2.50
2019-02-12T13:15:16.677Z,2.40
2019-02-12T13:17:43.459Z,2.77
2019-02-12T13:20:11.047Z,1.73
2019-02-12T13:22:37.952Z,2.47
2019-02-12T13:25:08.637Z,2.23
2019-02-12T13:27:33.790Z,2.10
2019-02-12T13:30:00.624Z,1.70
2019-02-12T13:32:27.458Z,2.33
2019-02-12T13:34:54.369Z,2.60
2019-02-12T13:37:21.293Z,1.97
2019-02-12T13:39:48.105Z,3.00
2019-02-12T13:42:15.006Z,3.20
2019-02-12T13:44:42.190Z,2.00
2019-02-12T13:47:08.999Z,2.20
2019-02-12T13:49:35.923Z,2.57
2019-02-12T13:52:02.833Z,1.90
2019-02-12T13:54:29.779Z,1.87
2019-02-12T13:56:56.731Z,3.20
2019-02-12T13:59:23.547Z,2.83
2019-02-12T14:01:50.706Z,4.00
2019-02-12T14:04:17.557Z,4.30
2019-02-12T14:06:44.509Z,2.30
2019-02-12T14:09:11.458Z,5.10
2019-02-12T14:11:38.369Z,2.47
2019-02-12T14:14:05.211Z,2.00
2019-02-12T14:16:33.362Z,2.13
2019-02-12T14:19:00.395Z,2.40
2019-02-12T14:21:27.173Z,1.93
2019-02-12T14:23:53.981Z,2.50
2019-02-12T14:26:20.822Z,3.10
2019-02-12T14:28:47.996Z,2.23
2019-02-12T14:31:14.820Z,2.60
2019-02-12T14:33:41.627Z,1.80
2019-02-12T14:36:08.528Z,2.50
2019-02-12T14:38:35.383Z,2.03
2019-02-12T14:41:02.304Z,2.73
2019-02-12T14:43:29.181Z,2.07
2019-02-12T14:45:55.996Z,2.00
2019-02-12T14:48:23.201Z,2.00
2019-02-12T14:50:50.228Z,2.50
2019-02-12T14:53:17.042Z,2.23
2019-02-12T14:55:44.060Z,2.40
2019-02-12T14:58:11.173Z,3.47
2019-02-12T15:00:37.977Z,2.97
2019-02-12T15:03:04.872Z,2.70
2019-02-12T15:05:31.799Z,2.40
2019-02-12T15:07:58.635Z,2.20
2019-02-12T15:10:25.578Z,1.70
2019-02-12T15:12:52.556Z,2.60
2019-02-12T15:15:19.380Z,1.50
2019-02-12T15:17:46.374Z,2.20
2019-02-12T15:20:13.418Z,1.80
2019-02-12T15:22:40.327Z,2.20
2019-02-12T15:25:07.252Z,3.33
2019-02-12T15:27:34.136Z,3.10
2019-02-12T15:30:01.023Z,2.50
2019-02-12T15:32:27.912Z,2.00
2019-02-12T15:34:54.837Z,2.80
2019-02-12T15:37:21.702Z,3.23
2019-02-12T15:39:48.709Z,2.70
2019-02-12T15:42:15.595Z,2.20
2019-02-12T15:44:42.536Z,3.57
2019-02-12T15:47:09.600Z,2.60
2019-02-12T15:49:36.462Z,3.07
2019-02-12T15:52:03.281Z,2.43
2019-02-12T15:54:30.083Z,2.67
2019-02-12T15:56:57.054Z,2.00
2019-02-12T15:59:23.872Z,3.20
2019-02-12T16:01:51.267Z,2.90
2019-02-12T16:04:19.630Z,5.00
2019-02-12T16:06:46.649Z,4.17
2019-02-12T16:09:15.552Z,2.90
2019-02-12T16:11:44.091Z,4.27
2019-02-12T16:14:11.328Z,4.47
2019-02-12T16:16:38.788Z,4.60
2019-02-12T16:19:06.254Z,5.70
2019-02-12T16:21:34.397Z,6.60
2019-02-12T16:24:01.657Z,5.10
2019-02-12T16:26:28.511Z,3.70
2019-02-12T16:28:55.362Z,3.20
2019-02-12T16:31:22.160Z,4.60
2019-02-12T16:33:49.903Z,3.40
2019-02-12T16:36:16.787Z,4.43
2019-02-12T16:38:44.123Z,3.00
2019-02-12T16:41:10.992Z,2.53
2019-02-12T16:43:37.952Z,3.20
2019-02-12T16:46:06.785Z,3.07
2019-02-12T16:48:33.652Z,3.70
2019-02-12T16:51:00.431Z,2.20
2019-02-12T16:53:27.889Z,4.00
2019-02-12T16:55:54.805Z,5.20
2019-02-12T16:58:21.993Z,3.53
2019-02-12T17:00:48.979Z,4.20
2019-02-12T17:03:16.046Z,4.23
2019-02-12T17:05:43.146Z,3.20
2019-02-12T17:08:10.187Z,3.83
2019-02-12T17:10:37.384Z,4.03
2019-02-12T17:13:04.629Z,3.70
2019-02-12T17:15:31.728Z,5.53
2019-02-12T17:17:58.896Z,4.93
2019-02-12T17:20:26.155Z,5.50
2019-02-12T17:22:53.499Z,4.47
2019-02-12T17:25:20.807Z,4.03
2019-02-12T17:27:48.148Z,3.40
2019-02-12T17:30:15.255Z,3.13
2019-02-12T17:32:42.075Z,7.47
2019-02-12T17:35:09.029Z,4.70
2019-02-12T17:37:35.847Z,11.17
2019-02-12T17:40:03.055Z,7.10
2019-02-12T17:42:30.004Z,14.67
2019-02-12T17:44:57.087Z,8.77
2019-02-12T17:47:23.960Z,6.47
2019-02-12T17:49:50.785Z,8.30
2019-02-12T17:52:17.668Z,6.13
2019-02-12T17:54:44.582Z,5.37
2019-02-12T17:57:11.407Z,6.90
2019-02-12T17:59:38.477Z,7.53
2019-02-12T18:02:05.320Z,4.53
2019-02-12T18:04:32.144Z,5.70
2019-02-12T18:06:58.945Z,5.73
2019-02-12T18:09:25.760Z,3.90
2019-02-12T18:11:52.600Z,5.87
2019-02-12T18:14:19.569Z,5.83
2019-02-12T18:16:46.449Z,6.10
2019-02-12T18:19:13.240Z,7.13
2019-02-12T18:21:40.335Z,3.43
2019-02-12T18:24:07.483Z,6.67
2019-02-12T18:26:34.436Z,5.07
2019-02-12T18:29:02.707Z,4.73
2019-02-12T18:31:29.489Z,5.23
2019-02-12T18:33:58.055Z,7.80
2019-02-12T18:36:25.010Z,9.20
2019-02-12T18:38:51.997Z,6.70
2019-02-12T18:41:18.928Z,10.23
2019-02-12T18:43:45.893Z,6.20
2019-02-12T18:46:12.904Z,4.27
2019-02-12T18:48:39.734Z,5.03
2019-02-12T18:51:06.581Z,5.43
2019-02-12T18:53:33.375Z,6.70
2019-02-12T18:56:00.181Z,3.53
2019-02-12T18:58:27.025Z,3.83
2019-02-12T19:00:53.819Z,3.20
2019-02-12T19:03:20.847Z,5.87
2019-02-12T19:05:47.713Z,6.83
2019-02-12T19:08:14.586Z,5.50
2019-02-12T19:10:41.448Z,4.33
2019-02-12T19:13:08.308Z,5.70
2019-02-12T19:15:35.203Z,3.97
2019-02-12T19:18:06.949Z,3.70
2019-02-12T19:20:33.743Z,6.10
2019-02-12T19:23:00.578Z,4.37
2019-02-12T19:25:27.420Z,4.63
2019-02-12T19:27:54.271Z,5.80
2019-02-12T19:30:21.077Z,7.93
2019-02-12T19:32:47.920Z,5.13
2019-02-12T19:35:14.793Z,3.70
2019-02-12T19:37:41.621Z,3.80
2019-02-12T19:40:08.651Z,7.83
2019-02-12T19:42:35.515Z,4.57
2019-02-12T19:45:02.590Z,5.90
2019-02-12T19:47:29.400Z,8.03
2019-02-12T19:49:56.236Z,3.80
2019-02-12T19:52:23.102Z,4.33
2019-02-12T19:54:49.889Z,5.67
2019-02-12T19:57:16.825Z,3.93
2019-02-12T19:59:43.682Z,7.60
2019-02-12T20:02:10.532Z,4.50
2019-02-12T20:04:37.440Z,6.80
2019-02-12T20:07:04.295Z,5.73
2019-02-12T20:09:31.139Z,5.20
2019-02-12T20:11:58.045Z,3.77
2019-02-12T20:14:24.867Z,4.77
2019-02-12T20:16:53.091Z,4.20
2019-02-12T20:19:20.298Z,6.57
2019-02-12T20:21:47.642Z,5.87
2019-02-12T20:24:14.483Z,6.63
2019-02-12T20:26:41.532Z,8.30
2019-02-12T20:29:08.477Z,5.10
2019-02-12T20:31:35.367Z,6.50
2019-02-12T20:34:02.167Z,6.20
2019-02-12T20:36:29.010Z,7.33
2019-02-12T20:38:55.979Z,4.00
2019-02-12T20:41:23.095Z,5.60
2019-02-12T20:43:50.242Z,5.07
2019-02-12T20:46:17.330Z,7.30
2019-02-12T20:48:44.263Z,4.80
2019-02-12T20:51:11.935Z,5.80
2019-02-12T20:53:38.969Z,6.23
2019-02-12T20:56:07.166Z,7.03
2019-02-12T20:58:34.197Z,6.17
2019-02-12T21:01:01.084Z,6.13
2019-02-12T21:03:27.954Z,7.00
2019-02-12T21:05:54.773Z,5.90
2019-02-12T21:08:21.681Z,6.27
2019-02-12T21:10:49.020Z,6.93
2019-02-12T21:13:15.791Z,6.90
2019-02-12T21:15:42.564Z,6.10
2019-02-12T21:18:09.447Z,5.50
2019-02-12T21:20:36.313Z,5.83
2019-02-12T21:23:03.132Z,7.00
2019-02-12T21:25:29.975Z,6.13
2019-02-12T21:27:56.878Z,5.50
2019-02-12T21:30:23.716Z,6.27
2019-02-12T21:32:50.583Z,8.30
2019-02-12T21:35:17.389Z,6.17
2019-02-12T21:37:44.201Z,5.43
2019-02-12T21:40:12.330Z,4.60
2019-02-12T21:42:39.191Z,5.27
2019-02-12T21:45:06.501Z,6.53
2019-02-12T21:47:33.500Z,5.10
2019-02-12T21:50:05.814Z,4.90
2019-02-12T21:52:32.896Z,5.53
2019-02-12T21:54:59.797Z,6.20
2019-02-12T21:57:31.765Z,4.20
2019-02-12T21:59:55.548Z,6.03
2019-02-12T22:02:22.409Z,6.10
2019-02-12T22:04:49.284Z,5.00
2019-02-12T22:07:16.064Z,5.10
2019-02-12T22:09:42.905Z,4.27
2019-02-12T22:12:09.683Z,5.47
2019-02-12T22:14:36.488Z,4.80
2019-02-12T22:17:03.472Z,5.87
2019-02-12T22:19:30.280Z,4.90
2019-02-12T22:21:57.180Z,4.50
2019-02-12T22:24:24.279Z,5.40
2019-02-12T22:26:51.184Z,5.70
2019-02-12T22:29:18.348Z,4.83
2019-02-12T22:31:45.179Z,4.37
2019-02-12T22:34:12.134Z,4.30
2019-02-12T22:36:38.912Z,5.60
2019-02-12T22:39:06.033Z,5.60
2019-02-12T22:41:32.861Z,5.10
2019-02-12T22:43:59.732Z,8.20
2019-02-12T22:46:26.930Z,6.77
2019-02-12T22:48:54.217Z,5.30
2019-02-12T22:51:21.089Z,5.00
2019-02-12T22:53:49.821Z,5.20
2019-02-12T22:56:16.607Z,5.20
2019-02-12T22:58:43.402Z,7.33
2019-02-12T23:01:10.621Z,5.40
2019-02-12T23:03:37.404Z,6.93
2019-02-12T23:06:04.503Z,5.67
2019-02-12T23:08:31.558Z,6.20
2019-02-12T23:10:58.452Z,6.93
2019-02-12T23:13:25.246Z,7.40
2019-02-12T23:15:52.247Z,6.30
2019-02-12T23:18:19.052Z,7.03
2019-02-12T23:20:45.881Z,7.00
2019-02-12T23:23:12.707Z,7.30
2019-02-12T23:25:39.630Z,7.67
2019-02-12T23:28:06.435Z,8.20
2019-02-12T23:30:33.535Z,8.73
2019-02-12T23:33:00.357Z,9.97
2019-02-12T23:35:27.167Z,9.03
2019-02-12T23:37:54.016Z,9.80
2019-02-12T23:40:20.883Z,10.77
2019-02-12T23:42:47.724Z,11.03
2019-02-12T23:45:14.621Z,11.40
2019-02-12T23:47:41.408Z,10.97
2019-02-12T23:50:10.401Z,12.73
2019-02-12T23:52:37.358Z,13.90
2019-02-12T23:55:04.673Z,15.80
2019-02-12T23:57:31.575Z,14.57
2019-02-12T23:59:58.531Z,15.73
